createdAt,value
2023-01-30T00:00:23.671Z,-0.44
2023-01-30T00:01:23.661Z,-0.39
2023-01-30T00:02:23.758Z,-0.46
2023-01-30T00:03:23.650Z,-0.39
2023-01-30T00:04:23.650Z,-0.46
2023-01-30T00:05:23.714Z,-0.38
2023-01-30T00:06:23.633Z,-0.38
2023-01-30T00:07:23.643Z,-0.41
2023-01-30T00:08:23.649Z,-0.50
2023-01-30T00:09:23.638Z,-0.52
2023-01-30T00:10:25.831Z,-0.52
2023-01-30T00:11:23.605Z,-0.49
2023-01-30T00:12:23.589Z,-0.57
2023-01-30T00:13:23.608Z,-0.56
2023-01-30T00:14:23.577Z,-0.49
2023-01-30T00:15:23.584Z,-0.61
2023-01-30T00:16:23.590Z,-0.52
2023-01-30T00:17:23.562Z,-0.61
2023-01-30T00:18:23.554Z,-0.46
2023-01-30T00:19:23.573Z,-0.41
2023-01-30T00:20:23.536Z,-0.46
2023-01-30T00:21:23.542Z,-0.39
2023-01-30T00:22:23.549Z,-0.46
2023-01-30T00:23:23.527Z,-0.43
2023-01-30T00:24:23.615Z,-0.43
2023-01-30T00:25:23.633Z,-0.28
2023-01-30T00:26:23.569Z,-0.38
2023-01-30T00:27:23.500Z,-0.41
2023-01-30T00:28:23.490Z,-0.47
2023-01-30T00:29:23.499Z,-0.47
2023-01-30T00:30:23.494Z,-0.53
2023-01-30T00:31:23.492Z,-0.49
2023-01-30T00:32:23.474Z,-0.47
2023-01-30T00:33:23.463Z,-0.56
2023-01-30T00:34:23.452Z,-0.39
2023-01-30T00:35:23.476Z,-0.50
2023-01-30T00:36:23.437Z,-0.62
2023-01-30T00:37:23.443Z,-0.56
2023-01-30T00:38:23.426Z,-0.57
2023-01-30T00:39:23.414Z,-0.47
2023-01-30T00:40:23.408Z,-0.49
2023-01-30T00:41:23.419Z,-0.46
2023-01-30T00:42:23.436Z,-0.46
2023-01-30T00:43:23.394Z,-0.46
2023-01-30T00:44:23.381Z,-0.43
2023-01-30T00:45:23.387Z,-0.46
2023-01-30T00:46:23.382Z,-0.43
2023-01-30T00:47:23.364Z,-0.41
2023-01-30T00:48:23.359Z,-0.47
2023-01-30T00:49:23.351Z,-0.43
2023-01-30T00:50:23.341Z,-0.44
2023-01-30T00:51:23.346Z,-0.39
2023-01-30T00:52:23.357Z,-0.39
2023-01-30T00:53:23.329Z,-0.35
2023-01-30T00:54:23.337Z,-0.38
2023-01-30T00:55:23.311Z,-0.38
2023-01-30T00:56:23.335Z,-0.31
2023-01-30T00:57:23.300Z,-0.31
2023-01-30T00:58:23.291Z,-0.35
2023-01-30T00:59:23.287Z,-0.38
2023-01-30T01:00:23.290Z,-0.31
2023-01-30T01:01:23.280Z,-0.32
2023-01-30T01:02:23.296Z,-0.21
2023-01-30T01:03:23.321Z,-0.35
2023-01-30T01:04:23.274Z,-0.25
2023-01-30T01:05:23.257Z,-0.34
2023-01-30T01:06:23.241Z,-0.26
2023-01-30T01:07:23.234Z,-0.25
2023-01-30T01:08:23.283Z,-0.23
2023-01-30T01:09:23.232Z,-0.21
2023-01-30T01:10:23.215Z,-0.21
2023-01-30T01:11:23.213Z,-0.25
2023-01-30T01:12:23.198Z,-0.20
2023-01-30T01:13:23.229Z,-0.14
2023-01-30T01:14:23.218Z,-0.23
2023-01-30T01:15:23.201Z,-0.15
2023-01-30T01:16:23.212Z,-0.28
2023-01-30T01:17:23.174Z,-0.31
2023-01-30T01:18:23.164Z,-0.20
2023-01-30T01:19:23.177Z,-0.18
2023-01-30T01:20:23.146Z,-0.21
2023-01-30T01:21:23.163Z,-0.18
2023-01-30T01:22:23.132Z,-0.07
2023-01-30T01:23:23.152Z,-0.13
2023-01-30T01:24:23.126Z,-0.14
2023-01-30T01:25:23.114Z,-0.10
2023-01-30T01:26:23.159Z,-0.15
2023-01-30T01:27:23.124Z,-0.13
2023-01-30T01:28:23.106Z,-0.17
2023-01-30T01:29:23.090Z,-0.14
2023-01-30T01:30:23.083Z,-0.13
2023-01-30T01:31:23.137Z,-0.11
2023-01-30T01:32:23.067Z,-0.13
2023-01-30T01:33:23.066Z,-0.06
2023-01-30T01:34:23.077Z,-0.20
2023-01-30T01:35:23.055Z,-0.07
2023-01-30T01:36:53.935Z,-0.06
2023-01-30T01:37:24.044Z,-0.20
2023-01-30T01:38:23.067Z,-0.07
2023-01-30T01:39:23.073Z,-0.11
2023-01-30T01:40:23.025Z,-0.25
2023-01-30T01:41:23.013Z,-0.15
2023-01-30T01:42:23.009Z,-0.08
2023-01-30T01:43:23.008Z,-0.03
2023-01-30T01:44:22.990Z,-0.03
2023-01-30T01:45:23.019Z,0.00
2023-01-30T01:46:22.981Z,-0.08
2023-01-30T01:47:23.022Z,0.01
2023-01-30T01:48:22.996Z,0.01
2023-01-30T01:49:22.968Z,-0.02
2023-01-30T01:50:22.961Z,0.01
2023-01-30T01:51:22.954Z,0.00
2023-01-30T01:52:22.962Z,-0.08
2023-01-30T01:53:22.947Z,0.04
2023-01-30T01:54:22.932Z,-0.03
2023-01-30T01:55:22.938Z,0.00
2023-01-30T01:56:22.927Z,-0.02
2023-01-30T01:57:22.933Z,0.03
2023-01-30T01:58:22.913Z,0.05
2023-01-30T01:59:22.905Z,0.05
2023-01-30T02:00:22.916Z,0.08
2023-01-30T02:01:23.017Z,0.10
2023-01-30T02:02:22.919Z,0.04
2023-01-30T02:03:22.882Z,0.15
2023-01-30T02:04:22.875Z,0.16
2023-01-30T02:05:22.886Z,0.19
2023-01-30T02:06:22.854Z,0.21
2023-01-30T02:07:22.883Z,0.25
2023-01-30T02:08:22.843Z,0.22
2023-01-30T02:09:22.854Z,0.29
2023-01-30T02:10:22.836Z,0.19
2023-01-30T02:11:22.827Z,0.25
2023-01-30T02:12:22.822Z,0.28
2023-01-30T02:13:22.834Z,0.31
2023-01-30T02:14:22.808Z,0.31
2023-01-30T02:15:22.800Z,0.31
2023-01-30T02:16:22.793Z,0.32
2023-01-30T02:17:22.807Z,0.34
2023-01-30T02:18:22.802Z,0.36
2023-01-30T02:19:22.782Z,0.41
2023-01-30T02:20:22.769Z,0.31
2023-01-30T02:21:22.758Z,0.36
2023-01-30T02:22:22.755Z,0.37
2023-01-30T02:23:22.765Z,0.31
2023-01-30T02:24:22.761Z,0.43
2023-01-30T02:25:22.755Z,0.34
2023-01-30T02:26:22.797Z,0.36
2023-01-30T02:27:22.719Z,0.37
2023-01-30T02:28:22.703Z,0.29
2023-01-30T02:29:22.717Z,0.47
2023-01-30T02:30:22.797Z,0.43
2023-01-30T02:31:22.845Z,0.36
2023-01-30T02:32:22.682Z,0.41
2023-01-30T02:33:22.680Z,0.41
2023-01-30T02:34:22.692Z,0.58
2023-01-30T02:35:22.687Z,0.44
2023-01-30T02:36:22.662Z,0.44
2023-01-30T02:37:22.679Z,0.56
2023-01-30T02:38:22.650Z,0.41
2023-01-30T02:39:22.651Z,0.47
2023-01-30T02:40:22.642Z,0.46
2023-01-30T02:41:22.646Z,0.46
2023-01-30T02:42:22.628Z,0.44
2023-01-30T02:43:22.628Z,0.41
2023-01-30T02:44:22.611Z,0.47
2023-01-30T02:45:22.593Z,0.60
2023-01-30T02:46:22.639Z,0.55
2023-01-30T02:47:22.635Z,0.55
2023-01-30T02:48:22.579Z,0.62
2023-01-30T02:49:22.573Z,0.59
2023-01-30T02:50:22.585Z,0.62
2023-01-30T02:51:22.561Z,0.65
2023-01-30T02:52:22.554Z,0.65
2023-01-30T02:53:22.563Z,0.68
2023-01-30T02:54:22.536Z,0.69
2023-01-30T02:55:22.541Z,0.69
2023-01-30T02:56:22.516Z,0.73
2023-01-30T02:57:22.521Z,0.73
2023-01-30T02:58:22.536Z,0.80
2023-01-30T02:59:22.509Z,0.83
2023-01-30T03:00:22.506Z,0.81
2023-01-30T03:01:22.538Z,0.76
2023-01-30T03:02:22.544Z,0.77
2023-01-30T03:03:22.509Z,0.77
2023-01-30T03:04:22.476Z,0.80
2023-01-30T03:05:22.472Z,0.80
2023-01-30T03:06:22.465Z,0.84
2023-01-30T03:07:22.459Z,0.94
2023-01-30T03:08:22.453Z,0.78
2023-01-30T03:09:22.459Z,0.92
2023-01-30T03:10:22.438Z,0.83
2023-01-30T03:11:22.448Z,0.91
2023-01-30T03:12:22.428Z,0.91
2023-01-30T03:13:22.430Z,0.87
2023-01-30T03:14:22.412Z,0.87
2023-01-30T03:15:22.431Z,0.92
2023-01-30T03:16:22.448Z,0.94
2023-01-30T03:17:22.402Z,0.86
2023-01-30T03:18:22.385Z,0.91
2023-01-30T03:19:22.380Z,0.77
2023-01-30T03:20:22.378Z,0.78
2023-01-30T03:21:22.389Z,0.83
2023-01-30T03:22:22.355Z,0.95
2023-01-30T03:23:22.353Z,1.01
2023-01-30T03:24:22.342Z,1.05
2023-01-30T03:25:22.338Z,1.01
2023-01-30T03:26:22.382Z,1.06
2023-01-30T03:27:22.348Z,1.06
2023-01-30T03:28:22.317Z,1.04
2023-01-30T03:29:22.313Z,1.10
2023-01-30T03:30:22.302Z,1.06
2023-01-30T03:31:22.471Z,1.05
2023-01-30T03:32:22.297Z,1.14
2023-01-30T03:33:22.306Z,1.13
2023-01-30T03:34:22.277Z,1.13
2023-01-30T03:35:22.280Z,1.14
2023-01-30T03:36:22.271Z,1.13
2023-01-30T03:37:22.284Z,1.14
2023-01-30T03:38:22.270Z,1.06
2023-01-30T03:39:22.258Z,1.17
2023-01-30T03:40:22.267Z,1.17
2023-01-30T03:41:22.237Z,1.16
2023-01-30T03:42:22.225Z,1.13
2023-01-30T03:43:22.219Z,1.12
2023-01-30T03:44:22.255Z,1.16
2023-01-30T03:45:22.207Z,1.16
2023-01-30T03:46:22.297Z,1.16
2023-01-30T03:47:22.196Z,1.12
2023-01-30T03:48:22.189Z,1.16
2023-01-30T03:49:22.196Z,1.19
2023-01-30T03:50:22.177Z,1.23
2023-01-30T03:51:22.192Z,1.12
2023-01-30T03:52:22.189Z,1.05
2023-01-30T03:53:22.163Z,1.02
2023-01-30T03:54:22.145Z,1.17
2023-01-30T03:55:22.175Z,1.17
2023-01-30T03:56:22.185Z,1.26
2023-01-30T03:57:22.150Z,1.08
2023-01-30T03:58:22.154Z,1.14
2023-01-30T03:59:22.134Z,1.13
2023-01-30T04:00:22.114Z,1.13
2023-01-30T04:01:22.202Z,1.14
2023-01-30T04:02:22.148Z,1.14
2023-01-30T04:03:22.096Z,1.28
2023-01-30T04:04:22.088Z,1.13
2023-01-30T04:05:22.090Z,1.17
2023-01-30T04:06:22.075Z,1.17
2023-01-30T04:07:22.090Z,1.06
2023-01-30T04:08:22.092Z,1.20
2023-01-30T04:09:22.057Z,1.20
2023-01-30T04:10:22.061Z,1.20
2023-01-30T04:11:22.051Z,1.16
2023-01-30T04:12:22.042Z,1.14
2023-01-30T04:13:22.034Z,1.20
2023-01-30T04:14:22.068Z,1.26
2023-01-30T04:15:22.020Z,1.26
2023-01-30T04:16:22.047Z,1.26
2023-01-30T04:17:22.013Z,1.32
2023-01-30T04:18:22.005Z,1.32
2023-01-30T04:19:21.993Z,1.24
2023-01-30T04:20:22.012Z,1.24
2023-01-30T04:21:21.982Z,1.28
2023-01-30T04:22:21.982Z,1.24
2023-01-30T04:23:21.971Z,1.35
2023-01-30T04:24:21.960Z,1.26
2023-01-30T04:25:21.963Z,1.28
2023-01-30T04:26:29.021Z,1.24
2023-01-30T04:27:21.950Z,1.31
2023-01-30T04:28:21.940Z,1.31
2023-01-30T04:29:21.932Z,1.30
2023-01-30T04:30:21.957Z,1.34
2023-01-30T04:31:21.961Z,1.32
2023-01-30T04:32:21.925Z,1.35
2023-01-30T04:33:21.924Z,1.26
2023-01-30T04:34:21.892Z,1.26
2023-01-30T04:35:21.892Z,1.34
2023-01-30T04:36:21.915Z,1.34
2023-01-30T04:37:21.884Z,1.35
2023-01-30T04:38:21.874Z,1.31
2023-01-30T04:39:22.192Z,1.32
2023-01-30T04:40:21.880Z,1.41
2023-01-30T04:41:21.867Z,1.40
2023-01-30T04:42:21.869Z,1.44
2023-01-30T04:43:21.866Z,1.44
2023-01-30T04:44:21.859Z,1.45
2023-01-30T04:45:21.857Z,1.50
2023-01-30T04:46:21.837Z,1.45
2023-01-30T04:47:21.843Z,1.41
2023-01-30T04:48:21.805Z,1.41
2023-01-30T04:49:21.821Z,1.49
2023-01-30T04:50:21.808Z,1.42
2023-01-30T04:51:21.816Z,1.52
2023-01-30T04:52:21.794Z,1.55
2023-01-30T04:53:21.783Z,1.44
2023-01-30T04:54:21.787Z,1.42
2023-01-30T04:55:21.785Z,1.56
2023-01-30T04:56:21.765Z,1.48
2023-01-30T04:57:21.791Z,1.56
2023-01-30T04:58:21.769Z,1.55
2023-01-30T04:59:21.758Z,1.53
2023-01-30T05:00:21.747Z,1.56
2023-01-30T05:01:21.736Z,1.53
2023-01-30T05:02:23.082Z,1.53
2023-01-30T05:03:21.757Z,1.62
2023-01-30T05:04:21.724Z,1.53
2023-01-30T05:05:21.712Z,1.55
2023-01-30T05:06:21.700Z,1.59
2023-01-30T05:07:21.720Z,1.62
2023-01-30T05:08:21.693Z,1.56
2023-01-30T05:09:21.682Z,1.55
2023-01-30T05:10:21.680Z,1.53
2023-01-30T05:11:21.685Z,1.63
2023-01-30T05:12:21.691Z,1.52
2023-01-30T05:13:21.663Z,1.59
2023-01-30T05:14:21.683Z,1.67
2023-01-30T05:15:21.660Z,1.58
2023-01-30T05:16:21.636Z,1.68
2023-01-30T05:17:21.722Z,1.60
2023-01-30T05:18:21.626Z,1.56
2023-01-30T05:19:21.629Z,1.67
2023-01-30T05:20:21.629Z,1.63
2023-01-30T05:21:21.613Z,1.63
2023-01-30T05:22:21.612Z,1.77
2023-01-30T05:23:21.595Z,1.77
2023-01-30T05:24:21.603Z,1.68
2023-01-30T05:25:21.622Z,1.68
2023-01-30T05:26:21.592Z,1.63
2023-01-30T05:27:21.577Z,1.63
2023-01-30T05:28:21.559Z,1.67
2023-01-30T05:29:21.570Z,1.68
2023-01-30T05:30:21.599Z,1.71
2023-01-30T05:31:21.655Z,1.63
2023-01-30T05:32:21.536Z,1.73
2023-01-30T05:33:21.549Z,1.74
2023-01-30T05:34:21.541Z,1.66
2023-01-30T05:35:21.525Z,1.63
2023-01-30T05:36:21.537Z,1.71
2023-01-30T05:37:21.517Z,1.70
2023-01-30T05:38:21.573Z,1.67
2023-01-30T05:39:21.510Z,1.67
2023-01-30T05:40:21.490Z,1.66
2023-01-30T05:41:21.489Z,1.62
2023-01-30T05:42:21.472Z,1.68
2023-01-30T05:43:21.471Z,1.68
2023-01-30T05:44:21.483Z,1.66
2023-01-30T05:45:21.458Z,1.68
2023-01-30T05:46:21.524Z,1.71
2023-01-30T05:47:21.478Z,1.62
2023-01-30T05:48:21.443Z,1.70
2023-01-30T05:49:21.442Z,1.68
2023-01-30T05:50:21.452Z,1.77
2023-01-30T05:51:21.424Z,1.66
2023-01-30T05:52:21.412Z,1.67
2023-01-30T05:53:21.430Z,1.76
2023-01-30T05:54:21.416Z,1.68
2023-01-30T05:55:21.419Z,1.74
2023-01-30T05:56:21.395Z,1.68
2023-01-30T05:57:21.393Z,1.74
2023-01-30T05:58:21.393Z,1.67
2023-01-30T05:59:21.379Z,1.71
2023-01-30T06:00:21.367Z,1.70
2023-01-30T06:01:21.364Z,1.73
2023-01-30T06:02:21.388Z,1.71
2023-01-30T06:03:21.359Z,1.76
2023-01-30T06:04:21.367Z,1.67
2023-01-30T06:05:21.341Z,1.71
2023-01-30T06:06:21.354Z,1.71
2023-01-30T06:07:21.324Z,1.73
2023-01-30T06:08:21.319Z,1.80
2023-01-30T06:09:21.316Z,1.78
2023-01-30T06:10:21.304Z,1.76
2023-01-30T06:11:21.310Z,1.76
2023-01-30T06:12:21.307Z,1.73
2023-01-30T06:13:21.296Z,1.67
2023-01-30T06:14:21.281Z,1.70
2023-01-30T06:15:21.274Z,1.81
2023-01-30T06:16:21.299Z,1.77
2023-01-30T06:17:21.260Z,1.73
2023-01-30T06:18:21.259Z,1.71
2023-01-30T06:19:21.259Z,1.78
2023-01-30T06:20:21.234Z,1.78
2023-01-30T06:21:21.236Z,1.84
2023-01-30T06:22:21.227Z,1.85
2023-01-30T06:23:21.226Z,1.89
2023-01-30T06:24:21.242Z,1.77
2023-01-30T06:25:21.298Z,1.81
2023-01-30T06:26:21.237Z,1.77
2023-01-30T06:27:21.195Z,1.73
2023-01-30T06:28:21.182Z,1.89
2023-01-30T06:29:21.171Z,1.73
2023-01-30T06:30:21.232Z,1.77
2023-01-30T06:31:21.203Z,1.73
2023-01-30T06:32:21.163Z,1.89
2023-01-30T06:33:21.179Z,1.81
2023-01-30T06:34:21.164Z,1.77
2023-01-30T06:35:21.388Z,1.91
2023-01-30T06:36:21.158Z,2.62
2023-01-30T06:37:21.148Z,3.47
2023-01-30T06:38:21.128Z,4.14
2023-01-30T06:39:21.123Z,4.50
2023-01-30T06:40:21.115Z,5.05
2023-01-30T06:41:21.104Z,5.38
2023-01-30T06:42:21.121Z,5.54
2023-01-30T06:43:21.106Z,5.62
2023-01-30T06:44:21.095Z,5.66
2023-01-30T06:45:21.250Z,5.73
2023-01-30T06:46:21.095Z,5.83
2023-01-30T06:47:21.072Z,6.02
2023-01-30T06:48:21.075Z,5.90
2023-01-30T06:49:21.067Z,5.89
2023-01-30T06:50:21.058Z,5.94
2023-01-30T06:51:21.046Z,5.53
2023-01-30T06:52:21.043Z,5.18
2023-01-30T06:53:21.037Z,4.67
2023-01-30T06:54:21.060Z,4.35
2023-01-30T06:55:21.234Z,4.02
2023-01-30T06:56:21.032Z,3.70
2023-01-30T06:57:21.011Z,3.50
2023-01-30T06:58:21.012Z,3.19
2023-01-30T06:59:20.999Z,3.07
2023-01-30T07:00:21.014Z,2.93
2023-01-30T07:01:20.973Z,2.85
2023-01-30T07:02:20.998Z,2.77
2023-01-30T07:03:20.974Z,2.67
2023-01-30T07:04:21.050Z,2.46
2023-01-30T07:05:20.967Z,2.39
2023-01-30T07:06:20.971Z,2.25
2023-01-30T07:07:20.965Z,2.26
2023-01-30T07:08:22.570Z,2.15
2023-01-30T07:09:20.947Z,2.10
2023-01-30T07:10:20.924Z,2.11
2023-01-30T07:11:20.916Z,2.08
2023-01-30T07:12:20.927Z,2.08
2023-01-30T07:13:20.904Z,1.97
2023-01-30T07:14:20.897Z,1.94
2023-01-30T07:15:21.212Z,1.89
2023-01-30T07:16:20.927Z,1.89
2023-01-30T07:17:20.883Z,1.92
2023-01-30T07:18:20.964Z,1.89
2023-01-30T07:19:20.885Z,1.97
2023-01-30T07:20:20.851Z,1.95
2023-01-30T07:21:20.864Z,1.97
2023-01-30T07:22:20.850Z,1.89
2023-01-30T07:23:20.842Z,1.85
2023-01-30T07:24:20.850Z,1.87
2023-01-30T07:25:21.040Z,1.91
2023-01-30T07:26:20.850Z,1.88
2023-01-30T07:27:20.829Z,1.84
2023-01-30T07:28:20.810Z,1.85
2023-01-30T07:29:20.806Z,1.84
2023-01-30T07:30:20.896Z,1.77
2023-01-30T07:31:20.842Z,1.88
2023-01-30T07:32:20.795Z,1.85
2023-01-30T07:33:20.802Z,1.91
2023-01-30T07:34:20.777Z,1.92
2023-01-30T07:35:21.131Z,1.94
2023-01-30T07:36:20.819Z,1.84
2023-01-30T07:37:20.755Z,1.88
2023-01-30T07:38:20.757Z,1.89
2023-01-30T07:39:20.752Z,1.87
2023-01-30T07:40:20.735Z,1.88
2023-01-30T07:41:20.727Z,1.84
2023-01-30T07:42:20.743Z,1.85
2023-01-30T07:43:20.723Z,1.87
2023-01-30T07:44:20.707Z,1.87
2023-01-30T07:45:20.721Z,1.85
2023-01-30T07:46:20.700Z,1.87
2023-01-30T07:47:20.688Z,1.80
2023-01-30T07:48:20.744Z,1.91
2023-01-30T07:49:20.710Z,1.87
2023-01-30T07:50:20.921Z,1.88
2023-01-30T07:51:20.669Z,1.92
2023-01-30T07:52:20.650Z,1.78
2023-01-30T07:53:20.656Z,1.76
2023-01-30T07:54:20.676Z,1.84
2023-01-30T07:55:20.964Z,1.94
2023-01-30T07:56:20.644Z,1.94
2023-01-30T07:57:20.630Z,1.94
2023-01-30T07:58:20.622Z,1.87
2023-01-30T07:59:20.632Z,1.91
2023-01-30T08:00:20.860Z,1.95
2023-01-30T08:01:20.627Z,1.89
2023-01-30T08:02:20.596Z,1.92
2023-01-30T08:03:20.603Z,1.95
2023-01-30T08:04:20.599Z,1.77
2023-01-30T08:05:20.621Z,1.92
2023-01-30T08:06:20.563Z,1.97
2023-01-30T08:07:20.580Z,2.00
2023-01-30T08:08:20.543Z,2.04
2023-01-30T08:09:20.565Z,2.00
2023-01-30T08:10:21.019Z,2.00
2023-01-30T08:11:20.575Z,2.00
2023-01-30T08:12:20.542Z,1.97
2023-01-30T08:13:20.528Z,2.02
2023-01-30T08:14:20.521Z,2.00
2023-01-30T08:15:22.587Z,2.00
2023-01-30T08:16:20.554Z,2.04
2023-01-30T08:17:20.530Z,2.04
2023-01-30T08:18:20.485Z,2.08
2023-01-30T08:19:20.492Z,2.04
2023-01-30T08:20:20.814Z,2.06
2023-01-30T08:21:20.479Z,2.08
2023-01-30T08:22:20.503Z,2.10
2023-01-30T08:23:20.473Z,2.13
2023-01-30T08:24:20.467Z,2.11
2023-01-30T08:25:20.442Z,2.17
2023-01-30T08:26:20.542Z,2.13
2023-01-30T08:27:20.441Z,2.17
2023-01-30T08:28:20.443Z,2.18
2023-01-30T08:29:20.436Z,2.20
2023-01-30T08:30:20.818Z,2.13
2023-01-30T08:31:20.509Z,2.14
2023-01-30T08:32:20.400Z,2.15
2023-01-30T08:33:20.394Z,2.17
2023-01-30T08:34:20.390Z,2.11
2023-01-30T08:35:20.386Z,2.15
2023-01-30T08:36:20.409Z,2.11
2023-01-30T08:37:20.384Z,2.24
2023-01-30T08:38:20.370Z,2.29
2023-01-30T08:39:20.349Z,2.33
2023-01-30T08:40:20.842Z,2.26
2023-01-30T08:41:20.360Z,2.28
2023-01-30T08:42:20.348Z,2.36
2023-01-30T08:43:20.324Z,2.36
2023-01-30T08:44:20.337Z,2.42
2023-01-30T08:45:20.333Z,2.44
2023-01-30T08:46:20.317Z,2.49
2023-01-30T08:47:20.294Z,2.49
2023-01-30T08:48:20.287Z,2.51
2023-01-30T08:49:20.302Z,2.50
2023-01-30T08:50:20.569Z,2.54
2023-01-30T08:51:20.271Z,2.50
2023-01-30T08:52:20.253Z,2.62
2023-01-30T08:53:20.274Z,2.56
2023-01-30T08:54:20.235Z,2.64
2023-01-30T08:55:20.231Z,2.69
2023-01-30T08:56:20.256Z,2.75
2023-01-30T08:57:20.232Z,2.75
2023-01-30T08:58:20.214Z,2.65
2023-01-30T08:59:20.207Z,2.67
2023-01-30T09:00:20.346Z,2.72
2023-01-30T09:01:20.307Z,2.62
2023-01-30T09:02:20.249Z,2.68
2023-01-30T09:03:20.181Z,2.65
2023-01-30T09:04:20.172Z,2.64
2023-01-30T09:05:20.164Z,2.75
2023-01-30T09:06:20.160Z,2.71
2023-01-30T09:07:20.178Z,2.68
2023-01-30T09:08:20.188Z,2.80
2023-01-30T09:09:20.147Z,2.80
2023-01-30T09:10:20.544Z,2.74
2023-01-30T09:11:20.146Z,2.72
2023-01-30T09:12:20.134Z,2.69
2023-01-30T09:13:20.117Z,2.79
2023-01-30T09:14:20.150Z,2.77
2023-01-30T09:15:20.112Z,2.82
2023-01-30T09:16:20.152Z,2.82
2023-01-30T09:17:20.088Z,2.82
2023-01-30T09:18:20.078Z,2.74
2023-01-30T09:19:20.075Z,2.74
2023-01-30T09:20:20.498Z,2.82
2023-01-30T09:21:20.067Z,2.83
2023-01-30T09:22:20.082Z,2.83
2023-01-30T09:23:20.051Z,2.86
2023-01-30T09:24:20.064Z,2.92
2023-01-30T09:25:20.054Z,3.00
2023-01-30T09:26:20.050Z,2.97
2023-01-30T09:27:20.042Z,3.05
2023-01-30T09:28:20.013Z,2.98
2023-01-30T09:29:20.007Z,2.89
2023-01-30T09:30:20.537Z,3.03
2023-01-30T09:31:20.136Z,3.10
2023-01-30T09:32:20.024Z,3.11
2023-01-30T09:33:19.986Z,3.00
2023-01-30T09:34:20.007Z,3.10
2023-01-30T09:35:20.003Z,3.16
2023-01-30T09:36:19.960Z,3.14
2023-01-30T09:37:19.958Z,3.13
2023-01-30T09:38:19.968Z,3.14
2023-01-30T09:39:19.946Z,3.22
2023-01-30T09:40:20.240Z,3.19
2023-01-30T09:41:19.938Z,3.18
2023-01-30T09:42:19.931Z,3.14
2023-01-30T09:43:19.914Z,3.22
2023-01-30T09:44:19.907Z,3.19
2023-01-30T09:45:19.904Z,3.14
2023-01-30T09:46:19.942Z,3.25
2023-01-30T09:47:19.885Z,3.23
2023-01-30T09:48:19.947Z,3.37
2023-01-30T09:49:19.889Z,3.36
2023-01-30T09:50:20.275Z,3.34
2023-01-30T09:51:19.885Z,3.41
2023-01-30T09:52:19.860Z,3.23
2023-01-30T09:53:19.871Z,3.34
2023-01-30T09:54:19.850Z,3.36
2023-01-30T09:55:19.855Z,3.25
2023-01-30T09:56:19.847Z,3.32
2023-01-30T09:57:21.256Z,3.31
2023-01-30T09:58:19.839Z,3.40
2023-01-30T09:59:19.841Z,3.25
2023-01-30T10:00:20.056Z,3.32
2023-01-30T10:01:21.378Z,3.34
2023-01-30T10:02:19.813Z,3.34
2023-01-30T10:03:19.826Z,3.55
2023-01-30T10:04:19.836Z,3.80
2023-01-30T10:05:19.782Z,3.84
2023-01-30T10:06:19.766Z,3.73
2023-01-30T10:07:19.772Z,3.74
2023-01-30T10:08:19.750Z,3.69
2023-01-30T10:09:19.773Z,3.70
2023-01-30T10:10:20.022Z,3.66
2023-01-30T10:11:19.733Z,3.65
2023-01-30T10:12:19.718Z,3.59
2023-01-30T10:13:19.735Z,3.66
2023-01-30T10:14:19.711Z,3.59
2023-01-30T10:15:19.713Z,3.58
2023-01-30T10:16:19.725Z,3.65
2023-01-30T10:17:19.714Z,3.59
2023-01-30T10:18:19.710Z,3.59
2023-01-30T10:19:33.665Z,3.62
2023-01-30T10:20:19.699Z,3.58
2023-01-30T10:21:19.664Z,3.55
2023-01-30T10:22:19.661Z,3.62
2023-01-30T10:23:19.673Z,3.60
2023-01-30T10:24:19.641Z,3.50
2023-01-30T10:25:19.639Z,3.60
2023-01-30T10:26:19.688Z,3.58
2023-01-30T10:27:19.638Z,3.60
2023-01-30T10:28:19.619Z,3.62
2023-01-30T10:29:19.625Z,3.48
2023-01-30T10:30:19.861Z,3.55
2023-01-30T10:31:19.735Z,3.58
2023-01-30T10:32:19.604Z,3.63
2023-01-30T10:33:19.596Z,3.66
2023-01-30T10:34:19.606Z,3.68
2023-01-30T10:35:19.571Z,3.60
2023-01-30T10:36:19.573Z,3.66
2023-01-30T10:37:19.560Z,3.80
2023-01-30T10:38:19.551Z,3.81
2023-01-30T10:39:19.546Z,3.80
2023-01-30T10:40:19.983Z,3.80
2023-01-30T10:41:19.601Z,3.86
2023-01-30T10:42:19.522Z,3.81
2023-01-30T10:43:19.517Z,3.87
2023-01-30T10:44:19.519Z,3.87
2023-01-30T10:45:19.514Z,4.02
2023-01-30T10:46:19.514Z,3.95
2023-01-30T10:47:21.064Z,4.05
2023-01-30T10:48:19.485Z,4.14
2023-01-30T10:49:19.502Z,4.35
2023-01-30T10:50:19.949Z,4.37
2023-01-30T10:51:19.467Z,4.34
2023-01-30T10:52:19.468Z,4.34
2023-01-30T10:53:19.480Z,4.48
2023-01-30T10:54:20.020Z,4.44
2023-01-30T10:55:31.528Z,4.44
2023-01-30T10:56:20.459Z,4.44
2023-01-30T10:57:19.459Z,4.53
2023-01-30T10:58:19.421Z,4.63
2023-01-30T10:59:19.418Z,4.71
2023-01-30T11:00:19.781Z,4.56
2023-01-30T11:01:19.410Z,4.74
2023-01-30T11:02:19.427Z,4.75
2023-01-30T11:03:19.403Z,4.71
2023-01-30T11:04:19.380Z,4.87
2023-01-30T11:05:19.725Z,4.68
2023-01-30T11:06:19.373Z,4.68
2023-01-30T11:07:19.376Z,4.55
2023-01-30T11:08:19.372Z,4.52
2023-01-30T11:09:19.358Z,4.59
2023-01-30T11:10:19.437Z,5.15
2023-01-30T11:11:19.351Z,5.62
2023-01-30T11:12:19.362Z,5.44
2023-01-30T11:13:19.350Z,6.54
2023-01-30T11:14:19.346Z,7.00
2023-01-30T11:15:19.624Z,7.32
2023-01-30T11:16:19.339Z,8.95
2023-01-30T11:17:19.342Z,8.20
2023-01-30T11:19:22.100Z,9.37
2023-01-30T11:20:19.784Z,9.21
2023-01-30T11:21:19.287Z,9.94
2023-01-30T11:22:19.284Z,9.58
2023-01-30T11:23:20.750Z,9.83
2023-01-30T11:24:19.294Z,10.09
2023-01-30T11:25:19.666Z,10.07
2023-01-30T11:26:19.291Z,11.04
2023-01-30T11:27:19.423Z,11.12
2023-01-30T11:28:19.239Z,11.57
2023-01-30T11:29:19.240Z,10.34
2023-01-30T11:30:19.641Z,9.44
2023-01-30T11:31:25.633Z,8.66
2023-01-30T11:32:20.349Z,8.24
2023-01-30T11:33:19.230Z,7.42
2023-01-30T11:34:19.210Z,7.20
2023-01-30T11:35:19.209Z,7.00
2023-01-30T11:36:19.212Z,6.95
2023-01-30T11:37:19.194Z,6.74
2023-01-30T11:38:19.183Z,6.66
2023-01-30T11:39:19.192Z,6.45
2023-01-30T11:40:19.700Z,6.41
2023-01-30T11:41:19.171Z,6.30
2023-01-30T11:42:19.173Z,6.41
2023-01-30T11:43:19.181Z,6.26
2023-01-30T11:44:19.140Z,6.24
2023-01-30T11:45:19.160Z,6.11
2023-01-30T11:46:19.135Z,7.11
2023-01-30T11:47:19.136Z,7.13
2023-01-30T11:48:33.336Z,6.66
2023-01-30T11:49:44.936Z,6.46
2023-01-30T11:50:27.370Z,6.35
2023-01-30T11:51:19.109Z,6.16
2023-01-30T11:52:19.099Z,6.11
2023-01-30T11:53:19.101Z,6.12
2023-01-30T11:54:19.109Z,6.01
2023-01-30T11:55:19.119Z,5.90
2023-01-30T11:56:19.075Z,5.94
2023-01-30T11:57:19.076Z,6.01
2023-01-30T11:58:19.070Z,5.89
2023-01-30T11:59:19.074Z,5.84
2023-01-30T12:00:19.298Z,6.01
2023-01-30T12:01:19.075Z,5.83
2023-01-30T12:02:19.061Z,5.98
2023-01-30T12:03:19.083Z,6.07
2023-01-30T12:04:19.041Z,6.07
2023-01-30T12:05:19.054Z,6.35
2023-01-30T12:06:19.027Z,6.59
2023-01-30T12:07:19.027Z,6.45
2023-01-30T12:08:24.782Z,6.28
2023-01-30T12:09:20.009Z,6.24
2023-01-30T12:10:19.307Z,6.09
2023-01-30T12:11:19.013Z,6.05
2023-01-30T12:12:18.999Z,6.02
2023-01-30T12:13:18.976Z,5.90
2023-01-30T12:14:18.990Z,5.91
2023-01-30T12:15:18.968Z,5.76
2023-01-30T12:16:19.003Z,5.79
2023-01-30T12:17:18.961Z,5.86
2023-01-30T12:18:18.968Z,5.79
2023-01-30T12:19:18.949Z,5.86
2023-01-30T12:20:19.342Z,5.83
2023-01-30T12:21:18.936Z,5.72
2023-01-30T12:22:18.936Z,5.61
2023-01-30T12:23:18.921Z,5.66
2023-01-30T12:24:18.949Z,5.68
2023-01-30T12:25:18.932Z,5.59
2023-01-30T12:26:18.936Z,5.56
2023-01-30T12:27:18.924Z,5.66
2023-01-30T12:28:18.895Z,5.68
2023-01-30T12:29:18.892Z,5.73
2023-01-30T12:30:19.313Z,5.72
2023-01-30T12:31:18.895Z,5.71
2023-01-30T12:32:18.883Z,5.79
2023-01-30T12:33:18.864Z,5.75
2023-01-30T12:34:18.850Z,5.83
2023-01-30T12:35:19.210Z,5.82
2023-01-30T12:36:18.845Z,5.87
2023-01-30T12:37:18.856Z,5.97
2023-01-30T12:38:18.817Z,5.97
2023-01-30T12:39:18.826Z,6.09
2023-01-30T12:40:18.819Z,6.26
2023-01-30T12:41:18.821Z,6.19
2023-01-30T12:42:20.134Z,6.22
2023-01-30T12:43:18.817Z,6.19
2023-01-30T12:44:18.791Z,6.17
2023-01-30T12:45:19.095Z,6.26
2023-01-30T12:46:18.824Z,6.19
2023-01-30T12:47:18.805Z,6.20
2023-01-30T12:48:18.766Z,6.27
2023-01-30T12:49:18.762Z,6.35
2023-01-30T12:50:18.766Z,6.42
2023-01-30T12:51:18.770Z,6.39
2023-01-30T12:52:18.750Z,6.44
2023-01-30T12:53:18.781Z,6.39
2023-01-30T12:54:20.367Z,6.33
2023-01-30T12:55:18.746Z,6.26
2023-01-30T12:56:18.722Z,6.22
2023-01-30T12:57:18.741Z,6.16
2023-01-30T12:58:18.705Z,6.24
2023-01-30T12:59:18.709Z,6.16
2023-01-30T13:00:19.051Z,6.17
2023-01-30T13:01:18.726Z,6.12
2023-01-30T13:02:18.707Z,6.17
2023-01-30T13:03:18.711Z,6.09
2023-01-30T13:04:18.682Z,6.11
2023-01-30T13:05:18.701Z,6.16
2023-01-30T13:06:18.661Z,6.16
2023-01-30T13:07:18.652Z,6.22
2023-01-30T13:08:18.677Z,6.12
2023-01-30T13:09:18.650Z,6.20
2023-01-30T13:10:19.128Z,6.08
2023-01-30T13:11:18.627Z,5.98
2023-01-30T13:12:18.625Z,5.97
2023-01-30T13:13:18.630Z,6.09
2023-01-30T13:14:18.612Z,5.99
2023-01-30T13:15:18.608Z,6.07